NV10 weather

Car Country Heliport
Henderson, Nevada, United States

Public forecast

Using degrees Fahrenheit for public forecast. Weather courtesy of forecast.io.

Closest aviation weather report (METAR) to Car Country Heliport

Closest report is Henderson Executive Airport, 10.1 nm (18.8 km) W. Retrieved 2019/10/17 12:56 UTC (1 hour ago):

KHND 171256Z AUTO 18007KT 10SM CLR 19/00 A2979 RMK AO2 SLP081 T01890000

Closest aviation forecast (TAF) to Car Country Heliport

Closest forecast is Henderson Executive Airport, 10.1 nm (18.8 km) W. Retrieved 2019/10/17 12:22 UTC (2 hours ago):

TAF KHND 171120Z 1712/1812 19007KT P6SM BKN200 FM171600 21017G27KT P6SM FEW140 BKN200 FM180400 23012G18KT P6SM FEW110 SCT200 FM181000 34011KT P6SM FEW100